Time;durP1;ratioP1;P1;durP2;ratioP2;P2;SDS_P1;SDS_P2;PMS_P1;PMS_P2;Temp;Humidity;BMP_temperature;BMP_pressure;BME280_temperature;BME280_humidity;BME280_pressure;Samples;Min_cycle;Max_cycle;Signal;HPM_P1;HPM_P2
2023/06/23 00:00:20;;;;;;;;;;;27.00;60.50;;;;;;5054613;28;19926;-60
2023/06/23 00:02:48;;;;;;;;;;;27.00;60.50;;;;;;5055428;28;19951;-60
2023/06/23 00:05:15;;;;;;;;;;;27.00;60.50;;;;;;5054518;28;20003;-60
2023/06/23 00:07:42;;;;;;;;;;;27.00;60.50;;;;;;5054989;28;19921;-60
2023/06/23 00:10:10;;;;;;;;;;;27.00;60.50;;;;;;5052867;28;19921;-61
2023/06/23 00:12:41;;;;;;;;;;;27.00;60.50;;;;;;5055099;28;20011;-60
2023/06/23 00:15:09;;;;;;;;;;;27.00;60.60;;;;;;5054911;28;19948;-59
2023/06/23 00:17:36;;;;;;;;;;;27.00;60.50;;;;;;5054533;28;19974;-60
2023/06/23 00:20:08;;;;;;;;;;;27.00;60.50;;;;;;5055075;28;19924;-61
2023/06/23 00:22:35;;;;;;;;;;;27.00;60.50;;;;;;5054516;28;19964;-60
2023/06/23 00:25:03;;;;;;;;;;;27.00;60.50;;;;;;5054505;28;19971;-60
2023/06/23 00:27:30;;;;;;;;;;;27.00;60.50;;;;;;5054555;28;19921;-60
2023/06/23 00:29:57;;;;;;;;;;;27.00;60.50;;;;;;5053014;28;19972;-60
2023/06/23 00:32:23;;;;;;;;;;;27.00;60.50;;;;;;5054614;28;20282;-60
2023/06/23 00:34:50;;;;;;;;;;;27.00;60.40;;;;;;5054453;28;19967;-60
2023/06/23 00:37:17;;;;;;;;;;;27.00;60.50;;;;;;5054083;28;19921;-60
2023/06/23 00:39:44;;;;;;;;;;;27.00;60.40;;;;;;5054191;28;19960;-61
2023/06/23 00:42:11;;;;;;;;;;;27.00;60.50;;;;;;5054369;28;20331;-60
2023/06/23 00:44:38;;;;;;;;;;;27.00;60.40;;;;;;5052797;28;19921;-60
2023/06/23 00:47:06;;;;;;;;;;;27.00;60.40;;;;;;5054028;28;19975;-61
2023/06/23 00:49:35;;;;;;;;;;;27.00;60.50;;;;;;5053936;28;19972;-60
2023/06/23 00:52:03;;;;;;;;;;;27.00;60.40;;;;;;5086007;28;19925;-60
2023/06/23 00:54:34;;;;;;;;;;;27.00;60.40;;;;;;5054423;28;19920;-60
2023/06/23 00:57:02;;;;;;;;;;;27.00;60.40;;;;;;5053925;28;19921;-60
2023/06/23 00:59:29;;;;;;;;;;;27.00;60.40;;;;;;5054064;28;19920;-60
2023/06/23 01:01:59;;;;;;;;;;;27.00;60.40;;;;;;5053194;28;19972;-60
2023/06/23 01:04:28;;;;;;;;;;;27.00;60.40;;;;;;5054001;28;19925;-60
2023/06/23 01:06:59;;;;;;;;;;;27.00;60.40;;;;;;5053643;28;20011;-61
2023/06/23 01:09:34;;;;;;;;;;;27.00;60.40;;;;;;5053792;28;20430;-61
2023/06/23 01:12:13;;;;;;;;;;;27.00;60.40;;;;;;5053894;28;19970;-60
2023/06/23 01:14:52;;;;;;;;;;;27.00;60.40;;;;;;5054049;28;19920;-60
2023/06/23 01:17:23;;;;;;;;;;;27.00;60.40;;;;;;5053751;28;19921;-60
2023/06/23 01:19:57;;;;;;;;;;;27.00;60.50;;;;;;5053190;28;19920;-61
2023/06/23 01:22:36;;;;;;;;;;;27.00;60.40;;;;;;5053739;28;19920;-60
2023/06/23 01:25:09;;;;;;;;;;;27.00;60.50;;;;;;5053846;28;19921;-61
2023/06/23 01:27:52;;;;;;;;;;;27.00;60.50;;;;;;5053039;28;19925;-60
2023/06/23 01:30:25;;;;;;;;;;;26.90;60.40;;;;;;5051350;28;19962;-60
2023/06/23 01:32:56;;;;;;;;;;;26.90;60.40;;;;;;5053522;28;19921;-61
2023/06/23 01:35:27;;;;;;;;;;;27.00;60.40;;;;;;5053610;28;19921;-60
2023/06/23 01:38:10;;;;;;;;;;;27.00;60.50;;;;;;5053527;28;19927;-61
2023/06/23 01:40:39;;;;;;;;;;;27.00;61.00;;;;;;5053507;28;19974;-60
2023/06/23 01:43:08;;;;;;;;;;;26.90;60.40;;;;;;5085425;28;20335;-60
2023/06/23 01:45:39;;;;;;;;;;;26.90;60.40;;;;;;5052598;28;19924;-60
2023/06/23 01:48:07;;;;;;;;;;;26.90;60.40;;;;;;5052816;28;19978;-60
2023/06/23 01:50:37;;;;;;;;;;;26.90;60.40;;;;;;5053221;28;20011;-60
2023/06/23 01:53:05;;;;;;;;;;;26.90;60.40;;;;;;5051924;28;20293;-61
2023/06/23 01:55:34;;;;;;;;;;;26.90;60.40;;;;;;5053420;28;19921;-61
2023/06/23 01:58:02;;;;;;;;;;;26.90;60.40;;;;;;5052773;28;19983;-61
2023/06/23 02:00:30;;;;;;;;;;;26.90;60.40;;;;;;5053424;28;19921;-60
2023/06/23 02:02:58;;;;;;;;;;;26.90;60.40;;;;;;5051851;28;19963;-61
2023/06/23 02:05:26;;;;;;;;;;;26.90;60.40;;;;;;5085298;28;19925;-60
2023/06/23 02:07:54;;;;;;;;;;;27.00;60.50;;;;;;5052914;28;19979;-60
2023/06/23 02:10:24;;;;;;;;;;;26.90;60.40;;;;;;5053735;28;19927;-61
2023/06/23 02:12:53;;;;;;;;;;;26.90;60.40;;;;;;5085021;28;19974;-60
2023/06/23 02:15:21;;;;;;;;;;;26.90;60.50;;;;;;5053003;28;20456;-60
2023/06/23 02:17:49;;;;;;;;;;;26.90;60.40;;;;;;5052808;28;19920;-61
2023/06/23 02:20:16;;;;;;;;;;;26.90;60.40;;;;;;5053424;28;19925;-60
2023/06/23 02:22:45;;;;;;;;;;;26.90;60.40;;;;;;5053071;28;20437;-61
2023/06/23 02:25:13;;;;;;;;;;;26.90;60.40;;;;;;5052851;28;20372;-61
2023/06/23 02:27:40;;;;;;;;;;;26.90;60.40;;;;;;5052810;28;19924;-61
2023/06/23 02:30:08;;;;;;;;;;;26.90;60.40;;;;;;5052454;28;19974;-60
2023/06/23 02:32:35;;;;;;;;;;;26.90;60.40;;;;;;5052742;28;19921;-60
2023/06/23 02:35:07;;;;;;;;;;;26.90;60.40;;;;;;5051617;28;19951;-61
2023/06/23 02:37:35;;;;;;;;;;;26.90;60.40;;;;;;5052594;28;19920;-60
2023/06/23 02:40:16;;;;;;;;;;;26.90;60.40;;;;;;5053117;28;19924;-61
2023/06/23 02:42:59;;;;;;;;;;;26.90;60.40;;;;;;5053160;28;20034;-60
2023/06/23 02:45:28;;;;;;;;;;;26.90;60.40;;;;;;5052406;28;20426;-61
2023/06/23 02:47:56;;;;;;;;;;;26.90;60.40;;;;;;5052589;28;19920;-60
2023/06/23 02:50:27;;;;;;;;;;;26.90;60.30;;;;;;5052588;28;19921;-60
2023/06/23 02:52:57;;;;;;;;;;;26.90;60.40;;;;;;5054580;28;19975;-60
2023/06/23 02:55:25;;;;;;;;;;;26.90;60.30;;;;;;5056512;28;19928;-61
2023/06/23 02:57:54;;;;;;;;;;;26.90;60.30;;;;;;5055787;28;19920;-60
2023/06/23 03:00:23;;;;;;;;;;;26.90;60.30;;;;;;5056169;28;19921;-61
2023/06/23 03:02:57;;;;;;;;;;;26.90;60.30;;;;;;5055926;28;19966;-61
2023/06/23 03:05:26;;;;;;;;;;;26.90;60.30;;;;;;5055982;28;19928;-61
2023/06/23 03:07:53;;;;;;;;;;;26.90;60.20;;;;;;5056148;28;19920;-61
2023/06/23 03:10:21;;;;;;;;;;;26.90;60.20;;;;;;5056170;28;19984;-60
2023/06/23 03:12:49;;;;;;;;;;;26.90;60.20;;;;;;5056029;28;20368;-60
2023/06/23 03:15:16;;;;;;;;;;;26.90;60.20;;;;;;5055816;28;19920;-60
2023/06/23 03:17:44;;;;;;;;;;;26.90;60.20;;;;;;5055915;28;20383;-61
2023/06/23 03:20:26;;;;;;;;;;;26.90;60.10;;;;;;5056141;28;19966;-61
2023/06/23 03:22:59;;;;;;;;;;;27.00;60.20;;;;;;5055692;28;19920;-60
2023/06/23 03:25:27;;;;;;;;;;;27.00;60.10;;;;;;5056151;28;20007;-60
2023/06/23 03:27:56;;;;;;;;;;;26.90;60.00;;;;;;5055703;28;19920;-60
2023/06/23 03:30:33;;;;;;;;;;;27.00;60.10;;;;;;5055419;28;20373;-60
2023/06/23 03:33:03;;;;;;;;;;;27.00;60.10;;;;;;5055663;28;19921;-60
2023/06/23 03:35:32;;;;;;;;;;;27.00;60.10;;;;;;5053760;28;19966;-61
2023/06/23 03:38:02;;;;;;;;;;;27.00;60.00;;;;;;5054958;28;19932;-60
2023/06/23 03:40:31;;;;;;;;;;;27.00;60.00;;;;;;5055396;28;19920;-60
2023/06/23 03:43:00;;;;;;;;;;;27.00;60.00;;;;;;5055245;28;19960;-60
2023/06/23 03:45:27;;;;;;;;;;;27.00;59.90;;;;;;5054842;28;19931;-60
2023/06/23 03:47:59;;;;;;;;;;;27.00;59.90;;;;;;5055148;28;19921;-61
2023/06/23 03:50:27;;;;;;;;;;;27.10;59.90;;;;;;5055010;28;19921;-61
2023/06/23 03:52:56;;;;;;;;;;;27.10;59.80;;;;;;5055585;28;19990;-60
2023/06/23 03:55:24;;;;;;;;;;;27.10;59.80;;;;;;5055013;28;19974;-60
2023/06/23 03:57:52;;;;;;;;;;;27.10;59.70;;;;;;5052911;28;19990;-60
2023/06/23 04:00:19;;;;;;;;;;;27.10;59.70;;;;;;5054753;28;19962;-60
2023/06/23 04:02:47;;;;;;;;;;;27.10;59.60;;;;;;5061470;28;19921;-60
2023/06/23 04:05:15;;;;;;;;;;;27.20;59.60;;;;;;5058305;28;20373;-60
2023/06/23 04:07:43;;;;;;;;;;;27.20;59.50;;;;;;5052405;28;19921;-60
2023/06/23 04:10:11;;;;;;;;;;;27.20;59.40;;;;;;5051480;28;20325;-60
2023/06/23 04:12:38;;;;;;;;;;;27.20;59.40;;;;;;5052944;28;19920;-61
2023/06/23 04:15:07;;;;;;;;;;;27.20;59.30;;;;;;5054378;28;19928;-60
2023/06/23 04:17:36;;;;;;;;;;;27.20;59.20;;;;;;5052542;28;19921;-60
2023/06/23 04:20:04;;;;;;;;;;;27.30;59.20;;;;;;5055448;28;20202;-60
2023/06/23 04:22:33;;;;;;;;;;;27.30;59.10;;;;;;5053823;28;20243;-61
2023/06/23 04:25:00;;;;;;;;;;;27.30;59.10;;;;;;5053391;28;19960;-61
2023/06/23 04:27:29;;;;;;;;;;;27.30;59.00;;;;;;5068491;28;20391;-60
2023/06/23 04:29:56;;;;;;;;;;;27.30;59.00;;;;;;5064846;28;20265;-60
2023/06/23 04:32:23;;;;;;;;;;;27.30;58.90;;;;;;5053620;28;19951;-60
2023/06/23 04:34:50;;;;;;;;;;;27.30;58.90;;;;;;5047935;28;19921;-61
2023/06/23 04:37:36;;;;;;;;;;;27.30;59.00;;;;;;5051864;28;19963;-60
2023/06/23 04:40:22;;;;;;;;;;;27.20;59.30;;;;;;5051099;28;19925;-60
2023/06/23 04:42:54;;;;;;;;;;;27.10;59.80;;;;;;5049317;28;20331;-61
2023/06/23 04:45:23;;;;;;;;;;;27.00;59.80;;;;;;5049706;28;20476;-60
2023/06/23 04:47:56;;;;;;;;;;;26.70;59.70;;;;;;5051102;28;19956;-60
2023/06/23 04:50:26;;;;;;;;;;;26.50;59.10;;;;;;5049118;28;20015;-61
2023/06/23 04:52:55;;;;;;;;;;;26.30;58.70;;;;;;5079906;28;19920;-60
2023/06/23 04:55:29;;;;;;;;;;;26.00;58.30;;;;;;5053015;28;19952;-61
2023/06/23 04:57:59;;;;;;;;;;;25.80;58.20;;;;;;5047061;28;20016;-60
2023/06/23 05:00:26;;;;;;;;;;;25.60;57.90;;;;;;5044182;28;19927;-60
2023/06/23 05:02:55;;;;;;;;;;;25.40;57.90;;;;;;5054189;28;19921;-60
2023/06/23 05:05:23;;;;;;;;;;;25.10;57.60;;;;;;5050496;28;19920;-60
2023/06/23 05:07:52;;;;;;;;;;;24.90;57.80;;;;;;5052154;28;19974;-61
2023/06/23 05:10:20;;;;;;;;;;;24.60;58.00;;;;;;5049991;28;21355;-60
2023/06/23 05:12:49;;;;;;;;;;;24.40;57.90;;;;;;5051601;28;20340;-60
2023/06/23 05:15:18;;;;;;;;;;;24.20;58.00;;;;;;5046970;28;20353;-61
2023/06/23 05:17:47;;;;;;;;;;;24.00;58.30;;;;;;5045979;28;20587;-61
2023/06/23 05:20:16;;;;;;;;;;;23.90;58.40;;;;;;5045877;28;20358;-61
2023/06/23 05:22:46;;;;;;;;;;;23.80;62.70;;;;;;5050833;28;19951;-61
2023/06/23 05:25:14;;;;;;;;;;;23.70;62.90;;;;;;5045350;28;19925;-61
2023/06/23 05:27:45;;;;;;;;;;;23.80;62.30;;;;;;5042643;28;19921;-60
2023/06/23 05:30:15;;;;;;;;;;;23.80;62.40;;;;;;5043121;28;20673;-61
2023/06/23 05:32:42;;;;;;;;;;;23.80;62.20;;;;;;5041094;28;19921;-61
2023/06/23 05:35:10;;;;;;;;;;;23.90;62.10;;;;;;5042429;28;20270;-61
2023/06/23 05:37:39;;;;;;;;;;;23.90;61.60;;;;;;5072305;28;19935;-60
2023/06/23 05:40:08;;;;;;;;;;;23.90;61.40;;;;;;5044118;28;20039;-61
2023/06/23 05:42:35;;;;;;;;;;;23.90;61.30;;;;;;5041439;28;19994;-61
2023/06/23 05:45:02;;;;;;;;;;;23.90;60.90;;;;;;5042304;28;20365;-61
2023/06/23 05:47:39;;;;;;;;;;;23.90;60.70;;;;;;5039830;28;19929;-62
2023/06/23 05:50:11;;;;;;;;;;;23.90;60.40;;;;;;5040639;28;19924;-61
2023/06/23 05:52:40;;;;;;;;;;;23.90;60.30;;;;;;5042728;28;19928;-61
2023/06/23 05:55:10;;;;;;;;;;;23.90;60.50;;;;;;5039966;28;19991;-61
2023/06/23 05:57:38;;;;;;;;;;;23.80;60.20;;;;;;5027699;28;20667;-62
2023/06/23 06:00:13;;;;;;;;;;;23.80;60.50;;;;;;5036855;28;19931;-60
2023/06/23 06:02:43;;;;;;;;;;;23.80;60.80;;;;;;5038958;28;19925;-61
2023/06/23 06:05:11;;;;;;;;;;;23.70;61.30;;;;;;5036178;28;19940;-61
2023/06/23 06:07:39;;;;;;;;;;;23.70;61.00;;;;;;5037882;28;19982;-60
2023/06/23 06:10:07;;;;;;;;;;;23.70;61.10;;;;;;5041498;28;19983;-60
2023/06/23 06:12:35;;;;;;;;;;;23.70;61.00;;;;;;5039025;28;19968;-59
2023/06/23 06:15:03;;;;;;;;;;;23.60;60.80;;;;;;5039381;28;19963;-60
2023/06/23 06:17:31;;;;;;;;;;;23.60;60.80;;;;;;5037135;28;20142;-60
2023/06/23 06:19:59;;;;;;;;;;;23.60;60.70;;;;;;5035816;28;19924;-61
2023/06/23 06:22:29;;;;;;;;;;;23.60;60.90;;;;;;5035867;28;19929;-60
2023/06/23 06:24:57;;;;;;;;;;;23.60;60.80;;;;;;5037418;28;19986;-60
2023/06/23 06:27:26;;;;;;;;;;;23.50;61.20;;;;;;5067484;28;19967;-59
2023/06/23 06:29:56;;;;;;;;;;;23.50;61.30;;;;;;5043436;28;20328;-59
2023/06/23 06:32:23;;;;;;;;;;;23.50;61.30;;;;;;5042363;28;20015;-60
2023/06/23 06:34:51;;;;;;;;;;;23.50;61.30;;;;;;5041483;28;19929;-59
2023/06/23 06:37:19;;;;;;;;;;;23.50;61.30;;;;;;5042424;28;20377;-60
2023/06/23 06:39:47;;;;;;;;;;;23.50;61.30;;;;;;5044358;28;19956;-60
2023/06/23 06:42:14;;;;;;;;;;;23.50;61.30;;;;;;5042070;28;19963;-59
2023/06/23 06:44:42;;;;;;;;;;;23.40;61.20;;;;;;5045629;28;19927;-59
2023/06/23 06:47:10;;;;;;;;;;;23.40;61.10;;;;;;5046476;28;20313;-58
2023/06/23 06:49:38;;;;;;;;;;;23.40;60.80;;;;;;5042989;28;20343;-58
2023/06/23 06:52:06;;;;;;;;;;;23.40;61.20;;;;;;5048014;28;19956;-58
2023/06/23 06:54:34;;;;;;;;;;;23.40;61.40;;;;;;5042877;28;19939;-59
2023/06/23 06:57:02;;;;;;;;;;;23.40;61.20;;;;;;5042379;28;19921;-58
2023/06/23 06:59:29;;;;;;;;;;;23.50;61.20;;;;;;5037792;28;19932;-57
2023/06/23 07:01:56;;;;;;;;;;;23.50;61.00;;;;;;5039351;28;19960;-58
2023/06/23 07:04:24;;;;;;;;;;;23.50;61.00;;;;;;5042949;28;19935;-58
2023/06/23 07:06:52;;;;;;;;;;;23.50;60.80;;;;;;5044844;28;20334;-58
2023/06/23 07:09:19;;;;;;;;;;;23.50;60.60;;;;;;5039229;28;20404;-58
2023/06/23 07:11:47;;;;;;;;;;;23.60;60.40;;;;;;5047686;28;19975;-58
2023/06/23 07:14:15;;;;;;;;;;;23.50;60.20;;;;;;5041990;28;19936;-59
2023/06/23 07:16:41;;;;;;;;;;;23.50;60.10;;;;;;5047014;28;20026;-58
2023/06/23 07:19:08;;;;;;;;;;;23.60;60.10;;;;;;5044583;28;19920;-57
2023/06/23 07:21:36;;;;;;;;;;;23.60;60.30;;;;;;5047544;28;20014;-58
2023/06/23 07:24:03;;;;;;;;;;;23.60;60.20;;;;;;5046627;28;19920;-58
2023/06/23 07:26:30;;;;;;;;;;;23.50;60.20;;;;;;5049971;28;20019;-59
2023/06/23 07:28:57;;;;;;;;;;;23.60;60.80;;;;;;5048246;28;19939;-59
2023/06/23 07:31:25;;;;;;;;;;;23.60;60.20;;;;;;5047524;28;20270;-58
2023/06/23 07:33:53;;;;;;;;;;;23.50;60.20;;;;;;5044300;28;19925;-58
2023/06/23 07:36:20;;;;;;;;;;;23.60;60.30;;;;;;5044718;28;20335;-59
2023/06/23 07:38:47;;;;;;;;;;;23.60;60.40;;;;;;5045013;28;19939;-59
2023/06/23 07:41:14;;;;;;;;;;;23.60;61.30;;;;;;5044208;28;19920;-58
2023/06/23 07:43:43;;;;;;;;;;;23.60;60.50;;;;;;5040611;28;19928;-58
2023/06/23 07:46:10;;;;;;;;;;;23.50;60.60;;;;;;5036798;28;20303;-58
2023/06/23 07:48:38;;;;;;;;;;;23.50;60.90;;;;;;5041807;28;20818;-58
2023/06/23 07:51:05;;;;;;;;;;;23.60;60.70;;;;;;5042027;28;19921;-58
2023/06/23 07:53:32;;;;;;;;;;;23.60;60.80;;;;;;5074777;28;19920;-58
2023/06/23 07:55:59;;;;;;;;;;;23.50;60.50;;;;;;5044596;28;20369;-58
2023/06/23 07:58:26;;;;;;;;;;;23.50;60.60;;;;;;5042003;28;20039;-58
2023/06/23 08:00:53;;;;;;;;;;;23.50;60.30;;;;;;5042637;28;19932;-59
2023/06/23 08:03:20;;;;;;;;;;;23.50;61.00;;;;;;5076158;28;20317;-58
2023/06/23 08:05:47;;;;;;;;;;;23.50;60.60;;;;;;5042313;28;19975;-59
2023/06/23 08:08:14;;;;;;;;;;;23.50;60.30;;;;;;5046474;28;20289;-58
2023/06/23 08:10:43;;;;;;;;;;;23.50;60.30;;;;;;5028576;28;20358;-58
2023/06/23 08:13:11;;;;;;;;;;;23.50;60.40;;;;;;5048422;28;19924;-59
2023/06/23 08:15:37;;;;;;;;;;;23.50;60.10;;;;;;5041443;28;19929;-61
2023/06/23 08:18:05;;;;;;;;;;;23.40;60.20;;;;;;5045012;28;19928;-59
2023/06/23 08:20:32;;;;;;;;;;;23.40;60.20;;;;;;5043169;28;20126;-58
2023/06/23 08:22:59;;;;;;;;;;;23.40;60.30;;;;;;5046363;28;20428;-58
2023/06/23 08:25:26;;;;;;;;;;;23.40;60.00;;;;;;5043014;28;19978;-59
2023/06/23 08:27:53;;;;;;;;;;;23.40;60.00;;;;;;5044945;28;20367;-59
2023/06/23 08:30:26;;;;;;;;;;;23.40;59.90;;;;;;5043922;28;19925;-60
2023/06/23 08:32:53;;;;;;;;;;;23.40;60.30;;;;;;5040403;28;19972;-64
2023/06/23 08:35:21;;;;;;;;;;;23.40;60.20;;;;;;5041375;28;19929;-59
2023/06/23 08:37:48;;;;;;;;;;;23.40;60.80;;;;;;5045805;28;20273;-59
2023/06/23 08:40:16;;;;;;;;;;;23.40;60.50;;;;;;5038652;28;19932;-59
2023/06/23 08:42:44;;;;;;;;;;;23.40;60.40;;;;;;5048319;28;19928;-59
2023/06/23 08:45:12;;;;;;;;;;;23.40;60.20;;;;;;5072702;28;20237;-59
2023/06/23 08:47:47;;;;;;;;;;;23.40;60.10;;;;;;5046043;28;19975;-59
2023/06/23 08:50:14;;;;;;;;;;;23.40;60.10;;;;;;5040791;28;20015;-59
2023/06/23 08:52:42;;;;;;;;;;;23.40;60.50;;;;;;5041805;28;19929;-58
2023/06/23 08:55:10;;;;;;;;;;;23.30;60.50;;;;;;5038569;28;19921;-59
2023/06/23 08:57:38;;;;;;;;;;;23.30;60.60;;;;;;5044834;28;19932;-59
2023/06/23 09:00:07;;;;;;;;;;;23.30;60.70;;;;;;5040344;28;19936;-58
2023/06/23 09:02:34;;;;;;;;;;;23.40;60.70;;;;;;5040692;28;19924;-58
2023/06/23 09:05:02;;;;;;;;;;;23.40;60.50;;;;;;5045162;28;19931;-59
2023/06/23 09:07:30;;;;;;;;;;;23.40;60.50;;;;;;5047256;28;19929;-58
2023/06/23 09:09:57;;;;;;;;;;;23.40;60.50;;;;;;5043755;28;20483;-58
2023/06/23 09:12:25;;;;;;;;;;;23.40;60.50;;;;;;5043519;28;19928;-59
2023/06/23 09:14:52;;;;;;;;;;;23.40;60.40;;;;;;5048373;28;19932;-60
2023/06/23 09:17:19;;;;;;;;;;;23.40;60.40;;;;;;5044115;28;20369;-59
2023/06/23 09:19:49;;;;;;;;;;;23.40;60.40;;;;;;5042656;28;20008;-60
2023/06/23 09:22:19;;;;;;;;;;;23.40;59.90;;;;;;5047936;28;19928;-60
2023/06/23 09:24:47;;;;;;;;;;;23.40;60.10;;;;;;5047092;28;19977;-60
2023/06/23 09:27:14;;;;;;;;;;;23.40;60.00;;;;;;5041634;28;20357;-60
2023/06/23 09:29:42;;;;;;;;;;;23.40;60.20;;;;;;5044878;28;19924;-60
2023/06/23 09:32:09;;;;;;;;;;;23.40;60.20;;;;;;5043592;28;20332;-60
2023/06/23 09:34:38;;;;;;;;;;;23.40;60.20;;;;;;5040033;28;19928;-59
2023/06/23 09:37:13;;;;;;;;;;;23.30;60.00;;;;;;5042108;28;19928;-59
2023/06/23 09:39:43;;;;;;;;;;;23.30;60.00;;;;;;5069866;28;20007;-59
2023/06/23 09:42:11;;;;;;;;;;;23.40;60.20;;;;;;5040243;28;19921;-59
2023/06/23 09:44:40;;;;;;;;;;;23.30;59.70;;;;;;5043567;28;20401;-59
2023/06/23 09:47:07;;;;;;;;;;;23.30;60.10;;;;;;5044045;28;19920;-59
2023/06/23 09:49:39;;;;;;;;;;;23.40;60.20;;;;;;5041437;28;20361;-59
2023/06/23 09:52:06;;;;;;;;;;;23.30;60.40;;;;;;5044280;28;19932;-59
2023/06/23 09:54:35;;;;;;;;;;;23.40;60.50;;;;;;5043226;28;19920;-61
2023/06/23 09:57:06;;;;;;;;;;;23.40;60.30;;;;;;5056546;28;19951;-60
2023/06/23 09:59:36;;;;;;;;;;;23.40;60.60;;;;;;5045749;28;20381;-61
2023/06/23 10:02:03;;;;;;;;;;;23.40;59.90;;;;;;5044346;28;20603;-60
2023/06/23 10:04:30;;;;;;;;;;;23.40;59.90;;;;;;5047870;28;20400;-61
2023/06/23 10:06:58;;;;;;;;;;;23.40;60.00;;;;;;5047000;28;19975;-60
2023/06/23 10:09:25;;;;;;;;;;;23.40;60.00;;;;;;5051477;28;19924;-59
2023/06/23 10:11:52;;;;;;;;;;;23.40;60.00;;;;;;5047977;28;20444;-59
2023/06/23 10:14:20;;;;;;;;;;;23.50;59.90;;;;;;5078532;28;20377;-59
2023/06/23 10:16:48;;;;;;;;;;;23.50;59.70;;;;;;5051771;28;19924;-60
2023/06/23 10:19:16;;;;;;;;;;;23.50;59.70;;;;;;5052351;28;19967;-60
2023/06/23 10:21:44;;;;;;;;;;;23.50;59.70;;;;;;5047849;28;20015;-59
2023/06/23 10:24:17;;;;;;;;;;;23.50;59.90;;;;;;5048317;28;19921;-59
2023/06/23 10:26:45;;;;;;;;;;;23.50;60.30;;;;;;5053050;28;20392;-59
2023/06/23 10:29:13;;;;;;;;;;;23.50;60.40;;;;;;5050155;28;19921;-59
2023/06/23 10:31:41;;;;;;;;;;;23.50;60.40;;;;;;5047224;28;20373;-60
2023/06/23 10:34:11;;;;;;;;;;;23.60;60.80;;;;;;5042696;28;20032;-59
2023/06/23 10:36:39;;;;;;;;;;;23.60;60.50;;;;;;5051678;28;19932;-59
2023/06/23 10:39:07;;;;;;;;;;;23.60;61.00;;;;;;5046896;28;19933;-58
2023/06/23 10:41:35;;;;;;;;;;;23.60;60.90;;;;;;5045734;28;19929;-60
2023/06/23 10:44:02;;;;;;;;;;;23.60;60.80;;;;;;5045482;28;20434;-60
2023/06/23 10:46:32;;;;;;;;;;;23.60;60.80;;;;;;5048617;28;19959;-60
2023/06/23 10:48:59;;;;;;;;;;;23.60;61.10;;;;;;5046701;28;19960;-60
2023/06/23 10:51:26;;;;;;;;;;;23.60;61.00;;;;;;5049681;28;19925;-59
2023/06/23 10:54:05;;;;;;;;;;;23.70;61.20;;;;;;5043550;28;19925;-60
2023/06/23 10:56:39;;;;;;;;;;;23.70;60.90;;;;;;5049924;28;20704;-59
2023/06/23 10:59:26;;;;;;;;;;;23.70;61.10;;;;;;5041712;28;19974;-59
2023/06/23 11:02:13;;;;;;;;;;;23.70;61.50;;;;;;5046605;28;20340;-59
2023/06/23 11:04:53;;;;;;;;;;;23.70;61.00;;;;;;5074719;28;19924;-60
2023/06/23 11:07:21;;;;;;;;;;;23.70;61.10;;;;;;5061841;28;20059;-60
2023/06/23 11:10:02;;;;;;;;;;;23.70;61.00;;;;;;5047041;28;19983;-60
2023/06/23 11:12:42;;;;;;;;;;;23.80;61.00;;;;;;5046353;28;19940;-60
2023/06/23 11:15:13;;;;;;;;;;;23.80;60.90;;;;;;5050534;28;19929;-60
2023/06/23 11:17:44;;;;;;;;;;;23.70;60.70;;;;;;5047248;28;19986;-59
2023/06/23 11:20:25;;;;;;;;;;;23.70;60.80;;;;;;5050181;28;19920;-59
2023/06/23 11:22:54;;;;;;;;;;;23.70;60.90;;;;;;5041804;28;19963;-59
2023/06/23 11:25:25;;;;;;;;;;;23.70;61.80;;;;;;5046580;28;20372;-58
2023/06/23 11:28:12;;;;;;;;;;;23.80;61.90;;;;;;5049673;28;19936;-60
2023/06/23 11:30:59;;;;;;;;;;;23.80;61.80;;;;;;5042774;28;20020;-61
2023/06/23 11:33:27;;;;;;;;;;;23.80;61.40;;;;;;5045749;28;19928;-59
2023/06/23 11:35:54;;;;;;;;;;;23.80;61.30;;;;;;5048421;28;19951;-59
2023/06/23 11:38:21;;;;;;;;;;;23.80;61.30;;;;;;5043147;28;19947;-61
2023/06/23 11:40:49;;;;;;;;;;;23.90;61.20;;;;;;5044530;28;19963;-61
2023/06/23 11:43:18;;;;;;;;;;;23.90;60.80;;;;;;5042383;28;20293;-60
2023/06/23 11:45:56;;;;;;;;;;;23.90;60.70;;;;;;5045845;28;19928;-59
2023/06/23 11:48:28;;;;;;;;;;;23.90;60.50;;;;;;5081166;28;19927;-59
2023/06/23 11:50:55;;;;;;;;;;;23.90;60.40;;;;;;5050308;28;19921;-61
2023/06/23 11:53:23;;;;;;;;;;;23.90;60.60;;;;;;5044823;28;20011;-64
2023/06/23 11:55:51;;;;;;;;;;;23.90;60.80;;;;;;5047182;28;20385;-59
2023/06/23 11:58:21;;;;;;;;;;;23.90;60.80;;;;;;5049490;28;20019;-59
2023/06/23 12:00:48;;;;;;;;;;;23.90;60.80;;;;;;5042096;28;20008;-59
2023/06/23 12:03:15;;;;;;;;;;;23.90;60.80;;;;;;5045280;28;19920;-58
2023/06/23 12:05:43;;;;;;;;;;;24.00;63.90;;;;;;5048768;28;20304;-58
2023/06/23 12:08:10;;;;;;;;;;;24.30;63.90;;;;;;5048180;28;19955;-59
2023/06/23 12:10:39;;;;;;;;;;;24.60;63.60;;;;;;5049652;28;19920;-58
2023/06/23 12:13:08;;;;;;;;;;;24.90;62.80;;;;;;5048873;28;19979;-58
2023/06/23 12:15:36;;;;;;;;;;;25.30;62.30;;;;;;5051532;28;19927;-58
2023/06/23 12:18:04;;;;;;;;;;;25.60;62.10;;;;;;5050289;28;20013;-59
2023/06/23 12:20:35;;;;;;;;;;;25.80;60.90;;;;;;5040368;28;19920;-58
2023/06/23 12:23:03;;;;;;;;;;;26.00;60.40;;;;;;5048733;28;19951;-58
2023/06/23 12:25:31;;;;;;;;;;;26.20;60.00;;;;;;5049183;28;19982;-58
2023/06/23 12:28:03;;;;;;;;;;;26.40;59.60;;;;;;5052403;28;19964;-58
2023/06/23 12:30:40;;;;;;;;;;;26.50;59.20;;;;;;5047876;28;19943;-58
2023/06/23 12:33:16;;;;;;;;;;;26.70;59.00;;;;;;5047732;28;19943;-58
2023/06/23 12:36:03;;;;;;;;;;;26.80;58.70;;;;;;5051567;28;19982;-58
2023/06/23 12:38:31;;;;;;;;;;;26.90;58.50;;;;;;5051556;28;19928;-59
2023/06/23 12:41:18;;;;;;;;;;;27.00;58.30;;;;;;5050446;28;19925;-58
2023/06/23 12:43:47;;;;;;;;;;;27.10;58.10;;;;;;5051145;28;19921;-59
2023/06/23 12:46:15;;;;;;;;;;;27.20;57.80;;;;;;5051459;28;19982;-58
2023/06/23 12:48:43;;;;;;;;;;;27.20;57.50;;;;;;5053363;28;19982;-59
2023/06/23 12:51:11;;;;;;;;;;;27.30;57.30;;;;;;5051132;28;20347;-59
2023/06/23 12:53:39;;;;;;;;;;;27.40;57.20;;;;;;5048737;28;19999;-58
2023/06/23 12:56:07;;;;;;;;;;;27.40;57.30;;;;;;5076207;28;20019;-59
2023/06/23 12:58:34;;;;;;;;;;;27.50;57.40;;;;;;5050768;28;20383;-58
2023/06/23 13:01:04;;;;;;;;;;;27.50;57.10;;;;;;5046471;28;20285;-58
2023/06/23 13:03:31;;;;;;;;;;;27.60;57.20;;;;;;5047432;28;20431;-58
2023/06/23 13:05:58;;;;;;;;;;;27.60;57.10;;;;;;5046781;28;19983;-58
2023/06/23 13:08:25;;;;;;;;;;;27.70;57.20;;;;;;5050108;28;20369;-58
2023/06/23 13:10:52;;;;;;;;;;;27.80;57.30;;;;;;5045786;28;19921;-58
2023/06/23 13:13:19;;;;;;;;;;;27.90;57.40;;;;;;5049671;28;19921;-58
2023/06/23 13:15:47;;;;;;;;;;;27.90;57.40;;;;;;5050625;28;19974;-58
2023/06/23 13:18:15;;;;;;;;;;;28.00;57.40;;;;;;5052440;28;19974;-58
2023/06/23 13:20:42;;;;;;;;;;;28.00;57.00;;;;;;5049016;28;20389;-59
2023/06/23 13:23:09;;;;;;;;;;;28.10;56.70;;;;;;5046677;28;19968;-58
2023/06/23 13:25:36;;;;;;;;;;;28.10;56.50;;;;;;5051086;28;19971;-58
2023/06/23 13:28:04;;;;;;;;;;;28.20;56.80;;;;;;5050887;28;19974;-58
2023/06/23 13:30:31;;;;;;;;;;;28.20;56.10;;;;;;5050754;28;19952;-58
2023/06/23 13:32:58;;;;;;;;;;;28.30;56.00;;;;;;5052458;28;20018;-58
2023/06/23 13:35:24;;;;;;;;;;;28.30;55.70;;;;;;5051268;28;19921;-60
2023/06/23 13:37:54;;;;;;;;;;;28.30;55.60;;;;;;5052297;28;19963;-58
2023/06/23 13:40:21;;;;;;;;;;;28.30;55.50;;;;;;5049994;28;19927;-58
2023/06/23 13:42:48;;;;;;;;;;;28.40;55.40;;;;;;5048969;28;19926;-60
2023/06/23 13:45:15;;;;;;;;;;;28.40;55.10;;;;;;5048518;28;19947;-58
2023/06/23 13:47:42;;;;;;;;;;;28.40;55.00;;;;;;5048399;28;20020;-58
2023/06/23 13:50:14;;;;;;;;;;;28.40;54.80;;;;;;5049751;28;19924;-58
2023/06/23 13:52:42;;;;;;;;;;;28.50;54.90;;;;;;5052337;28;19920;-58
2023/06/23 13:55:10;;;;;;;;;;;28.50;54.80;;;;;;5035589;28;20003;-58
2023/06/23 13:57:37;;;;;;;;;;;28.50;54.60;;;;;;5053121;28;19963;-58
2023/06/23 14:00:05;;;;;;;;;;;28.50;54.40;;;;;;5053139;28;19925;-59
2023/06/23 14:02:32;;;;;;;;;;;28.50;54.40;;;;;;5053077;28;19924;-58
2023/06/23 14:05:00;;;;;;;;;;;28.50;54.40;;;;;;5052742;28;19974;-58
2023/06/23 14:07:26;;;;;;;;;;;28.50;53.40;;;;;;5052788;28;19964;-58
2023/06/23 14:09:54;;;;;;;;;;;28.50;52.90;;;;;;5053084;28;19920;-58
2023/06/23 14:12:21;;;;;;;;;;;28.50;52.90;;;;;;5053024;28;20452;-58
2023/06/23 14:14:48;;;;;;;;;;;28.40;53.10;;;;;;5053577;28;20324;-58
2023/06/23 14:17:16;;;;;;;;;;;28.40;53.60;;;;;;5053031;28;19921;-58
2023/06/23 14:19:44;;;;;;;;;;;28.40;54.00;;;;;;5053335;28;19970;-58
2023/06/23 14:22:11;;;;;;;;;;;28.40;54.50;;;;;;5052621;28;20011;-58
2023/06/23 14:24:38;;;;;;;;;;;28.40;54.90;;;;;;5053302;28;20292;-58
2023/06/23 14:27:05;;;;;;;;;;;28.40;55.20;;;;;;5052982;28;19963;-58